createdAt,value
2018-10-02T00:00:11.531Z,78.16
2018-10-02T00:25:02.139Z,77.20
2018-10-02T00:27:49.586Z,77.65
2018-10-02T00:33:43.259Z,77.20
2018-10-02T00:36:30.861Z,77.37
2018-10-02T00:39:19.331Z,75.70
2018-10-02T00:42:09.984Z,76.66
2018-10-02T00:44:57.604Z,77.30
2018-10-02T00:47:54.475Z,77.37
2018-10-02T00:50:42.890Z,77.62
2018-10-02T00:56:37.332Z,77.52
2018-10-02T00:59:27.352Z,77.73
2018-10-02T01:02:15.944Z,77.82
2018-10-02T01:20:38.312Z,77.98
2018-10-02T01:29:57.650Z,75.36
2018-10-02T01:42:05.761Z,76.93
2018-10-02T01:44:55.619Z,77.25
2018-10-02T01:47:47.325Z,77.44
2018-10-02T01:50:36.222Z,77.59
2018-10-02T01:53:24.041Z,77.56
2018-10-02T02:02:27.642Z,77.83
2018-10-02T02:05:15.207Z,78.07
2018-10-02T02:08:02.790Z,77.80
2018-10-02T02:10:50.403Z,77.91
2018-10-02T02:13:37.562Z,77.97
2018-10-02T02:16:28.602Z,76.31
2018-10-02T02:37:55.415Z,78.14
2018-10-02T02:46:56.745Z,78.05
2018-10-02T02:49:47.160Z,78.06
2018-10-02T02:58:47.292Z,76.47
2018-10-02T03:20:14.317Z,76.28
2018-10-02T03:23:01.880Z,77.17
2018-10-02T03:25:49.968Z,77.55
2018-10-02T03:28:37.379Z,77.77
2018-10-02T03:31:25.761Z,76.18
2018-10-02T03:34:13.892Z,77.17
2018-10-02T03:58:45.091Z,77.66
2018-10-02T04:01:32.681Z,78.29
2018-10-02T04:04:21.090Z,78.69
2018-10-02T04:07:11.928Z,79.05
2018-10-02T04:13:05.814Z,78.49
2018-10-02T05:05:03.235Z,80.20
2018-10-02T05:11:05.551Z,80.31
2018-10-02T05:13:56.326Z,80.29
2018-10-02T06:44:29.209Z,76.12
2018-10-02T06:57:02.861Z,74.03
2018-10-02T07:06:04.233Z,71.99
2018-10-02T07:08:54.986Z,73.06
2018-10-02T07:11:46.295Z,73.15
2018-10-02T07:27:21.260Z,69.77
2018-10-02T07:30:10.071Z,68.10
2018-10-02T07:33:01.025Z,70.54
2018-10-02T07:35:49.152Z,71.23
2018-10-02T07:38:36.965Z,71.44
2018-10-02T07:44:31.059Z,71.95
2018-10-02T07:47:21.396Z,72.10
2018-10-02T07:50:09.726Z,72.08
2018-10-02T07:52:59.503Z,71.83
2018-10-02T08:14:27.398Z,67.15
2018-10-02T08:17:28.408Z,67.13
2018-10-02T08:26:46.900Z,67.37
2018-10-02T08:29:34.676Z,67.22
2018-10-02T08:32:24.553Z,66.97
2018-10-02T08:41:26.822Z,66.63
2018-10-02T08:47:24.304Z,63.38
2018-10-02T08:56:26.062Z,64.18
2018-10-02T09:02:28.010Z,64.36
2018-10-02T09:05:15.542Z,64.07
2018-10-02T09:14:25.439Z,63.69
2018-10-02T09:29:41.113Z,63.77
2018-10-02T09:55:24.094Z,64.37
2018-10-02T09:58:16.362Z,64.82
2018-10-02T10:01:06.021Z,64.91
2018-10-02T10:06:59.419Z,64.66
2018-10-02T10:09:46.711Z,63.87
2018-10-02T10:15:43.517Z,62.18
2018-10-02T10:18:33.567Z,62.44
2018-10-02T10:27:45.778Z,63.47
2018-10-02T10:30:42.942Z,63.57
2018-10-02T10:36:42.404Z,63.01
2018-10-02T10:39:29.846Z,62.66
2018-10-02T10:42:17.610Z,62.31
2018-10-02T10:54:31.941Z,65.05
2018-10-02T11:25:24.902Z,65.20
2018-10-02T11:28:12.747Z,65.85
2018-10-02T11:31:00.340Z,61.99
2018-10-02T11:43:25.647Z,65.60
2018-10-02T11:46:15.943Z,66.25
2018-10-02T11:55:17.412Z,66.54
2018-10-02T12:01:15.167Z,66.73
2018-10-02T12:10:17.485Z,66.69
2018-10-02T12:28:37.073Z,66.58
2018-10-02T12:31:28.290Z,66.55
2018-10-02T12:34:34.682Z,62.75
2018-10-02T12:37:24.338Z,65.14
2018-10-02T12:40:11.782Z,65.77
2018-10-02T12:45:48.578Z,65.90
2018-10-02T13:07:17.212Z,65.33
2018-10-02T13:10:04.760Z,65.68
2018-10-02T13:13:03.297Z,61.47
2018-10-02T13:15:50.901Z,65.08
2018-10-02T13:18:38.327Z,65.96
2018-10-02T13:21:25.890Z,67.05
2018-10-02T13:27:24.579Z,68.17
2018-10-02T13:30:15.262Z,64.68
2018-10-02T13:33:08.188Z,67.85
2018-10-02T13:36:02.571Z,69.00
2018-10-02T13:38:51.227Z,69.91
2018-10-02T13:41:38.449Z,70.32
2018-10-02T13:44:27.418Z,70.43
2018-10-02T13:47:15.264Z,67.33
2018-10-02T13:53:22.185Z,70.38
2018-10-02T13:56:09.664Z,70.75
2018-10-02T14:02:04.939Z,67.86
2018-10-02T14:04:59.649Z,69.85
2018-10-02T14:10:54.676Z,67.85
2018-10-02T14:13:44.086Z,70.00
2018-10-02T14:16:32.485Z,70.62
2018-10-02T14:19:19.940Z,71.04
2018-10-02T14:22:08.563Z,71.19
2018-10-02T14:25:12.315Z,71.15
2018-10-02T14:34:12.654Z,71.76
2018-10-02T14:37:00.500Z,71.73
2018-10-02T14:39:49.170Z,71.56
2018-10-02T14:45:43.239Z,71.84
2018-10-02T14:48:30.940Z,72.11
2018-10-02T14:51:18.133Z,72.01
2018-10-02T14:54:21.116Z,69.46
2018-10-02T14:57:08.633Z,71.15
2018-10-02T15:09:15.288Z,71.86
2018-10-02T15:12:02.487Z,71.89
2018-10-02T15:36:35.489Z,73.25
2018-10-02T15:39:22.581Z,73.75
2018-10-02T15:42:09.968Z,74.25
2018-10-02T15:44:57.180Z,74.41
2018-10-02T15:50:50.381Z,74.55
2018-10-02T16:09:10.646Z,76.62
2018-10-02T16:24:30.082Z,74.55
2018-10-02T16:27:17.259Z,75.47
2018-10-02T16:54:58.447Z,78.01
2018-10-02T16:57:45.981Z,78.17
2018-10-02T17:00:33.530Z,77.99
2018-10-02T17:03:20.749Z,78.07
2018-10-02T17:06:07.755Z,77.85
2018-10-02T17:12:01.132Z,75.37
2018-10-02T17:14:49.868Z,76.37
2018-10-02T17:17:37.730Z,76.82
2018-10-02T17:20:26.631Z,76.89
2018-10-02T17:23:13.583Z,77.22
2018-10-02T17:26:00.959Z,77.28
2018-10-02T17:28:48.825Z,77.18
2018-10-02T17:31:44.175Z,77.25
2018-10-02T17:34:32.757Z,75.40
2018-10-02T17:37:20.349Z,76.60
2018-10-02T17:40:08.493Z,76.98
2018-10-02T17:42:56.016Z,77.33
2018-10-02T17:45:44.458Z,77.54
2018-10-02T17:48:31.960Z,77.65
2018-10-02T17:51:19.210Z,77.65
2018-10-02T17:54:06.653Z,77.79
2018-10-02T17:56:57.814Z,75.94
2018-10-02T17:59:47.198Z,76.80
2018-10-02T18:02:35.553Z,75.26
2018-10-02T18:05:26.092Z,74.55
2018-10-02T18:08:13.436Z,74.03
2018-10-02T18:11:00.757Z,75.87
2018-10-02T18:13:59.793Z,76.60
2018-10-02T18:16:48.442Z,77.19
2018-10-02T18:25:58.027Z,77.50
2018-10-02T18:28:47.149Z,78.01
2018-10-02T18:31:36.840Z,78.19
2018-10-02T18:34:26.753Z,78.35
2018-10-02T18:37:13.970Z,78.74
2018-10-02T18:40:01.769Z,78.93
2018-10-02T18:42:50.871Z,78.95
2018-10-02T18:45:43.178Z,79.02
2018-10-02T18:48:35.851Z,77.26
2018-10-02T18:54:34.321Z,78.72
2018-10-02T18:57:26.179Z,79.10
2018-10-02T19:00:16.153Z,79.22
2018-10-02T19:03:08.851Z,79.53
2018-10-02T19:05:57.859Z,77.98
2018-10-02T19:12:07.803Z,79.32
2018-10-02T19:14:56.686Z,79.72
2018-10-02T19:17:50.263Z,80.02
2018-10-02T19:20:37.978Z,78.29
2018-10-02T19:23:25.971Z,79.22
2018-10-02T19:26:15.595Z,79.51
2018-10-02T19:29:04.155Z,79.79
2018-10-02T19:31:51.588Z,79.84
2018-10-02T19:34:44.387Z,79.86
2018-10-02T19:37:31.923Z,79.83
2018-10-02T19:40:19.867Z,79.94
2018-10-02T19:43:07.473Z,79.86
2018-10-02T19:45:54.754Z,79.94
2018-10-02T19:48:42.212Z,80.00
2018-10-02T19:51:29.945Z,79.84
2018-10-02T19:54:17.213Z,79.95
2018-10-02T19:57:05.405Z,80.12
2018-10-02T19:59:52.765Z,80.54
2018-10-02T20:02:40.656Z,79.25
2018-10-02T20:05:28.343Z,80.26
2018-10-02T20:08:16.262Z,80.50
2018-10-02T20:11:04.508Z,80.95
2018-10-02T20:13:52.717Z,81.11
2018-10-02T20:16:40.804Z,79.99
2018-10-02T20:19:28.739Z,80.95
2018-10-02T20:22:17.081Z,81.42
2018-10-02T20:25:05.039Z,81.69
2018-10-02T20:27:52.920Z,81.91
2018-10-02T20:30:41.154Z,81.89
2018-10-02T20:33:28.872Z,81.61
2018-10-02T20:36:19.196Z,80.03
2018-10-02T20:39:08.636Z,80.73
2018-10-02T20:41:56.391Z,81.08
2018-10-02T20:44:43.828Z,81.10
2018-10-02T20:47:33.080Z,81.02
2018-10-02T20:50:26.777Z,81.00
2018-10-02T20:53:17.480Z,81.08
2018-10-02T20:56:06.215Z,81.37
2018-10-02T20:58:53.949Z,79.81
2018-10-02T21:01:44.339Z,78.80
2018-10-02T21:04:36.894Z,79.94
2018-10-02T21:07:30.126Z,78.56
2018-10-02T21:10:18.055Z,79.50
2018-10-02T21:16:23.014Z,80.15
2018-10-02T21:19:13.868Z,80.23
2018-10-02T21:22:04.789Z,80.28
2018-10-02T21:24:52.777Z,80.38
2018-10-02T21:27:43.566Z,80.29
2018-10-02T21:33:34.784Z,80.40
2018-10-02T21:36:22.567Z,80.29
2018-10-02T21:39:10.448Z,80.23
2018-10-02T21:42:01.103Z,80.13
2018-10-02T21:44:49.556Z,80.31
2018-10-02T21:47:37.420Z,80.08
2018-10-02T21:50:25.524Z,80.01
2018-10-02T21:53:13.050Z,78.35
2018-10-02T21:56:01.169Z,79.00
2018-10-02T21:58:49.752Z,79.35
2018-10-02T22:01:40.519Z,77.41
2018-10-02T22:04:28.379Z,78.41
2018-10-02T22:07:16.128Z,78.72
2018-10-02T22:10:04.254Z,78.96
2018-10-02T22:12:52.307Z,79.13
2018-10-02T22:15:40.127Z,77.25
2018-10-02T22:18:29.147Z,78.11
2018-10-02T22:21:17.240Z,78.51
2018-10-02T22:24:08.602Z,78.66
2018-10-02T22:26:56.753Z,76.63
2018-10-02T22:32:56.794Z,77.87
2018-10-02T22:35:44.267Z,78.07
2018-10-02T22:38:32.841Z,77.97
2018-10-02T22:41:21.273Z,78.10
2018-10-02T22:44:08.454Z,78.02
2018-10-02T22:46:56.925Z,77.89
2018-10-02T22:49:44.591Z,77.77
2018-10-02T22:52:32.301Z,77.68
2018-10-02T22:55:20.423Z,77.53
2018-10-02T22:58:08.446Z,77.39
2018-10-02T23:00:56.206Z,75.30
2018-10-02T23:03:47.493Z,76.05
2018-10-02T23:06:35.459Z,76.41
2018-10-02T23:09:23.929Z,76.72
2018-10-02T23:12:12.012Z,77.00
2018-10-02T23:15:08.343Z,77.04
2018-10-02T23:17:56.186Z,77.10
2018-10-02T23:20:52.021Z,77.02
2018-10-02T23:23:40.384Z,77.00
2018-10-02T23:26:31.008Z,77.02
2018-10-02T23:29:18.963Z,77.12
2018-10-02T23:32:06.462Z,77.05
2018-10-02T23:34:54.287Z,77.24
2018-10-02T23:37:42.389Z,75.34
2018-10-02T23:40:30.485Z,76.21
2018-10-02T23:43:18.907Z,76.57
2018-10-02T23:46:07.417Z,76.85
2018-10-02T23:48:55.133Z,77.06
2018-10-02T23:51:42.980Z,77.19
2018-10-02T23:54:31.532Z,77.16
2018-10-02T23:57:19.659Z,77.22
